Kennebunk, ME (04043)

10:19 AM EDT on March 23, 2017 (GMT -0400)
Kennebunk | | Change Station

Elev 82 ft 43.39 °N, 70.54 °W | Updated 21 seconds ago

Clear
Clear
24.4 °F
Feels Like 19 °F
N
4.0
Wind Variable Wind from NNE

Today
High -- | Low -- °F
--% Chance of Precip.
Yesterday
High -- | Low -- °F
Precip. -- in
Pressure 30.45 in
Visibility 10.0 miles
Clouds Clear
Windchill 19 °F
Dew Point -1 °F
Humidity 31%
Rainfall 0.00 in
Snow Depth Not available.
6:39 AM 6:58 PM
Waning Crescent, 23% visible
METAR KSFM 231356Z AUTO 26011G16KT 10SM CLR M04/M18 A3041 RMK AO2 SLP310 T10441178 FZRANO
Pressure 30.45 in
Visibility 10.0 miles
Clouds Clear
Windchill 19 °F
Dew Point -1 °F
Humidity 31%
Rainfall 0.00 in
Snow Depth Not available.
6:39 AM 6:58 PM
Waning Crescent, 23% visible
METAR KSFM 231356Z AUTO 26011G16KT 10SM CLR M04/M18 A3041 RMK AO2 SLP310 T10441178 FZRANO

Get Severe Weather Alerts

Thanks for signing up!

Be on the lookout for a verification email in your inbox.

You'll start receiving the daily forecast at 8 AM.

×

10-Day Weather Forecast

Almanac

Astronomy

Mar. 23, 2017 Rise Set
Actual Time
Civil Twilight
Nautical Twilight
Astronomical Twilight
Moon
Length of Visible Light
Length of Day
Tomorrow will be .
, % of the Moon is Illuminated

Today's Extremes

State Highs State Lows

Community

WunderPhotos

Upload Photos

1,962,540 photos uploaded!

WunderBlog® & News

Nearby

Air Quality

  Air Quality AQ Index Pollutant
Not available.

Snow Depth

Station Depth Elevation

Earthquake Activity

City Distance Mag. Time & Date
Minimum magnitude displayed is 2.5.

Earthquake Activity

City Distance Mag. Time & Date
Minimum magnitude displayed is 2.5.

Coastal Water Temperatures

Place Temperature

Stations

Nearby Weather Stations

Station Location Temp. Windchill Dew Point Humidity Wind Precip. Elev Updated Type
                   

Watches & Warnings

There are currently no watches in effect.